createdAt,value
2018-08-17T00:00:40.909Z,0
2018-08-17T00:01:43.204Z,0
2018-08-17T00:02:45.496Z,0
2018-08-17T00:03:47.503Z,0
2018-08-17T00:04:49.513Z,0
2018-08-17T00:05:51.521Z,0
2018-08-17T00:06:53.809Z,0
2018-08-17T00:07:56.100Z,0
2018-08-17T00:08:58.394Z,0
2018-08-17T00:10:00.681Z,0
2018-08-17T00:11:02.973Z,0
2018-08-17T00:12:04.982Z,0
2018-08-17T00:13:06.990Z,0
2018-08-17T00:14:09.000Z,0
2018-08-17T00:15:11.009Z,0
2018-08-17T00:16:13.017Z,0
2018-08-17T00:17:15.025Z,0
2018-08-17T00:18:17.317Z,0
2018-08-17T00:19:19.327Z,0
2018-08-17T00:20:21.334Z,0
2018-08-17T00:21:23.344Z,0
2018-08-17T00:22:25.354Z,0
2018-08-17T00:23:27.363Z,0
2018-08-17T00:24:29.671Z,0
2018-08-17T00:25:31.686Z,0
2018-08-17T00:26:33.695Z,0
2018-08-17T00:27:35.988Z,0
2018-08-17T00:28:38.000Z,0
2018-08-17T00:29:40.004Z,0
2018-08-17T00:30:42.293Z,0
2018-08-17T00:31:44.686Z,0
2018-08-17T00:32:46.696Z,0
2018-08-17T00:33:48.705Z,0
2018-08-17T00:34:50.725Z,0
2018-08-17T00:35:53.319Z,0
2018-08-17T00:36:55.361Z,0
2018-08-17T00:37:57.386Z,0
2018-08-17T00:38:59.416Z,0
2018-08-17T00:40:01.456Z,0
2018-08-17T00:41:03.494Z,0
2018-08-17T00:42:05.521Z,0
2018-08-17T00:43:07.558Z,0
2018-08-17T00:44:09.868Z,0
2018-08-17T00:45:11.908Z,0
2018-08-17T00:46:13.948Z,0
2018-08-17T00:47:16.282Z,0
2018-08-17T00:48:18.313Z,0
2018-08-17T00:49:20.356Z,0
2018-08-17T00:50:22.392Z,0
2018-08-17T00:51:24.421Z,0
2018-08-17T00:52:26.465Z,0
2018-08-17T00:53:28.782Z,0
2018-08-17T00:54:31.106Z,0
2018-08-17T00:55:33.170Z,0
2018-08-17T00:56:35.177Z,0
2018-08-17T00:57:37.206Z,0
2018-08-17T00:58:39.245Z,0
2018-08-17T00:59:41.872Z,0
2018-08-17T01:00:44.200Z,0
2018-08-17T01:01:46.251Z,0
2018-08-17T01:02:48.273Z,0
2018-08-17T01:03:50.310Z,0
2018-08-17T01:04:52.343Z,0
2018-08-17T01:05:54.390Z,0
2018-08-17T01:06:56.420Z,0
2018-08-17T01:07:58.454Z,0
2018-08-17T01:09:00.491Z,0
2018-08-17T01:10:02.518Z,0
2018-08-17T01:11:04.943Z,0
2018-08-17T01:12:06.978Z,0
2018-08-17T01:13:09.007Z,0
2018-08-17T01:14:11.328Z,0
2018-08-17T01:15:14.043Z,0
2018-08-17T01:16:16.088Z,0
2018-08-17T01:17:18.118Z,0
2018-08-17T01:18:20.154Z,0
2018-08-17T01:19:22.183Z,0
2018-08-17T01:20:24.220Z,0
2018-08-17T01:21:26.270Z,0
2018-08-17T01:22:28.683Z,0
2018-08-17T01:23:30.718Z,0
2018-08-17T01:24:32.754Z,0
2018-08-17T01:25:34.782Z,0
2018-08-17T01:26:36.831Z,0
2018-08-17T01:27:38.859Z,0
2018-08-17T01:28:40.902Z,0
2018-08-17T01:29:43.208Z,0
2018-08-17T01:30:45.528Z,0
2018-08-17T01:31:47.569Z,0
2018-08-17T01:32:49.991Z,0
2018-08-17T01:33:52.021Z,0
2018-08-17T01:34:54.073Z,0
2018-08-17T01:35:56.099Z,0
2018-08-17T01:36:58.133Z,0
2018-08-17T01:38:00.164Z,0
2018-08-17T01:39:02.207Z,0
2018-08-17T01:40:04.241Z,0
2018-08-17T01:41:06.271Z,0
2018-08-17T01:42:08.589Z,0
2018-08-17T01:43:10.612Z,0
2018-08-17T01:44:12.649Z,0
2018-08-17T01:45:14.972Z,0
2018-08-17T01:46:17.009Z,0
2018-08-17T01:47:19.038Z,0
2018-08-17T01:48:21.082Z,0
2018-08-17T01:49:23.115Z,0
2018-08-17T01:50:25.154Z,0
2018-08-17T01:51:27.186Z,0
2018-08-17T01:52:29.215Z,0
2018-08-17T01:53:31.255Z,0
2018-08-17T01:54:33.600Z,0
2018-08-17T01:55:35.622Z,0
2018-08-17T01:56:37.654Z,0
2018-08-17T01:57:39.690Z,0
2018-08-17T01:58:41.719Z,0
2018-08-17T01:59:43.764Z,0
2018-08-17T02:00:45.797Z,0
2018-08-17T02:01:47.831Z,0
2018-08-17T02:02:49.862Z,0
2018-08-17T02:03:51.913Z,0
2018-08-17T02:04:53.941Z,0
2018-08-17T02:05:55.979Z,0
2018-08-17T02:06:58.015Z,0
2018-08-17T02:08:00.039Z,0
2018-08-17T02:09:02.370Z,0
2018-08-17T02:10:04.400Z,0
2018-08-17T02:11:06.440Z,0
2018-08-17T02:12:08.465Z,0
2018-08-17T02:13:10.783Z,0
2018-08-17T02:14:12.819Z,0
2018-08-17T02:15:14.855Z,0
2018-08-17T02:16:16.900Z,0
2018-08-17T02:17:18.935Z,0
2018-08-17T02:18:20.966Z,0
2018-08-17T02:19:23.002Z,0
2018-08-17T02:20:25.037Z,0
2018-08-17T02:21:27.066Z,0
2018-08-17T02:22:29.398Z,0
2018-08-17T02:23:31.721Z,0
2018-08-17T02:24:33.863Z,0
2018-08-17T02:25:35.793Z,0
2018-08-17T02:26:38.213Z,0
2018-08-17T02:27:40.239Z,0
2018-08-17T02:28:42.280Z,0
2018-08-17T02:29:44.316Z,0
2018-08-17T02:30:46.355Z,0
2018-08-17T02:31:48.692Z,0
2018-08-17T02:32:50.705Z,0
2018-08-17T02:33:52.739Z,0
2018-08-17T02:34:54.773Z,0
2018-08-17T02:35:56.810Z,0
2018-08-17T02:36:58.835Z,0
2018-08-17T02:38:00.875Z,0
2018-08-17T02:39:02.907Z,0
2018-08-17T02:40:05.227Z,0
2018-08-17T02:41:07.266Z,0
2018-08-17T02:42:09.582Z,0
2018-08-17T02:43:11.895Z,0
2018-08-17T02:44:13.932Z,0
2018-08-17T02:45:15.980Z,0
2018-08-17T02:46:18.019Z,0
2018-08-17T02:47:20.341Z,0
2018-08-17T02:48:22.374Z,0
2018-08-17T02:49:24.712Z,0
2018-08-17T02:50:27.029Z,0
2018-08-17T02:51:29.060Z,0
2018-08-17T02:52:31.104Z,0
2018-08-17T02:53:33.140Z,0
2018-08-17T02:54:35.170Z,0
2018-08-17T02:55:37.493Z,0
2018-08-17T02:56:39.524Z,0
2018-08-17T02:57:42.450Z,0
2018-08-17T02:58:44.487Z,0
2018-08-17T02:59:46.814Z,0
2018-08-17T03:00:49.235Z,0
2018-08-17T03:01:51.297Z,0
2018-08-17T03:02:54.306Z,0
2018-08-17T03:03:56.339Z,0
2018-08-17T03:04:58.381Z,0
2018-08-17T03:06:00.791Z,0
2018-08-17T03:07:02.830Z,0
2018-08-17T03:08:04.861Z,0
2018-08-17T03:09:06.904Z,0
2018-08-17T03:10:08.927Z,0
2018-08-17T03:11:10.970Z,0
2018-08-17T03:12:13.005Z,0
2018-08-17T03:13:16.090Z,0
2018-08-17T03:14:18.418Z,0
2018-08-17T03:15:20.447Z,0
2018-08-17T03:16:22.479Z,0
2018-08-17T03:17:24.902Z,0
2018-08-17T03:18:26.944Z,0
2018-08-17T03:19:28.974Z,0
2018-08-17T03:20:31.015Z,0
2018-08-17T03:21:33.051Z,0
2018-08-17T03:22:35.751Z,0
2018-08-17T03:23:37.790Z,0
2018-08-17T03:24:40.131Z,0
2018-08-17T03:25:42.167Z,0
2018-08-17T03:26:44.476Z,0
2018-08-17T03:27:46.515Z,0
2018-08-17T03:28:49.226Z,0
2018-08-17T03:29:51.570Z,0
2018-08-17T03:30:53.903Z,0
2018-08-17T03:31:56.238Z,0
2018-08-17T03:32:58.280Z,0
2018-08-17T03:34:00.620Z,0
2018-08-17T03:35:03.029Z,0
2018-08-17T03:36:05.446Z,0
2018-08-17T03:37:08.303Z,0
2018-08-17T03:38:10.365Z,0
2018-08-17T03:39:12.356Z,0
2018-08-17T03:40:14.388Z,0
2018-08-17T03:41:16.711Z,0
2018-08-17T03:42:18.737Z,0
2018-08-17T03:43:20.784Z,0
2018-08-17T03:44:22.818Z,0
2018-08-17T03:45:25.150Z,0
2018-08-17T03:46:27.469Z,0
2018-08-17T03:47:29.495Z,0
2018-08-17T03:48:31.573Z,0
2018-08-17T03:49:33.571Z,0
2018-08-17T03:50:35.602Z,0
2018-08-17T03:51:37.628Z,1
2018-08-17T03:52:40.236Z,1
2018-08-17T03:53:42.269Z,1
2018-08-17T03:54:44.302Z,1
2018-08-17T03:55:46.345Z,1
2018-08-17T03:56:48.376Z,1
2018-08-17T03:57:50.417Z,1
2018-08-17T03:58:52.458Z,1
2018-08-17T03:59:54.493Z,1
2018-08-17T04:00:56.516Z,2
2018-08-17T04:01:58.550Z,2
2018-08-17T04:03:00.586Z,2
2018-08-17T04:04:02.620Z,2
2018-08-17T04:05:04.657Z,2
2018-08-17T04:06:06.680Z,2
2018-08-17T04:07:08.720Z,3
2018-08-17T04:08:10.747Z,3
2018-08-17T04:09:12.784Z,3
2018-08-17T04:10:14.821Z,3
2018-08-17T04:11:16.849Z,4
2018-08-17T04:12:19.190Z,4
2018-08-17T04:13:21.223Z,4
2018-08-17T04:14:23.643Z,4
2018-08-17T04:15:26.049Z,4
2018-08-17T04:16:28.078Z,5
2018-08-17T04:17:30.107Z,5
2018-08-17T04:18:32.141Z,5
2018-08-17T04:19:34.754Z,5
2018-08-17T04:20:36.774Z,5
2018-08-17T04:21:39.197Z,6
2018-08-17T04:22:41.232Z,6
2018-08-17T04:23:43.281Z,6
2018-08-17T04:24:45.291Z,6
2018-08-17T04:25:47.333Z,6
2018-08-17T04:26:49.369Z,7
2018-08-17T04:27:51.402Z,7
2018-08-17T04:28:53.737Z,7
2018-08-17T04:29:55.768Z,7
2018-08-17T04:30:57.800Z,8
2018-08-17T04:31:59.839Z,8
2018-08-17T04:33:01.875Z,8
2018-08-17T04:34:03.902Z,8
2018-08-17T04:35:05.937Z,9
2018-08-17T04:36:07.968Z,9
2018-08-17T04:37:10.010Z,9
2018-08-17T04:38:12.626Z,9
2018-08-17T04:39:14.949Z,10
2018-08-17T04:40:17.275Z,10
2018-08-17T04:41:19.305Z,10
2018-08-17T04:42:21.336Z,10
2018-08-17T04:43:23.376Z,11
2018-08-17T04:44:25.793Z,11
2018-08-17T04:45:28.122Z,11
2018-08-17T04:46:30.160Z,12
2018-08-17T04:47:32.201Z,12
2018-08-17T04:48:34.221Z,12
2018-08-17T04:49:36.265Z,13
2018-08-17T04:50:38.292Z,13
2018-08-17T04:51:40.327Z,13
2018-08-17T04:52:42.365Z,13
2018-08-17T04:53:44.388Z,13
2018-08-17T04:54:47.101Z,13
2018-08-17T04:55:49.137Z,13
2018-08-17T04:56:51.178Z,13
2018-08-17T04:57:53.203Z,13
2018-08-17T04:58:55.241Z,13
2018-08-17T04:59:57.277Z,14
2018-08-17T05:00:59.319Z,14
2018-08-17T05:02:01.362Z,14
2018-08-17T05:03:03.394Z,15
2018-08-17T05:04:06.015Z,16
2018-08-17T05:05:08.060Z,16
2018-08-17T05:06:10.377Z,17
2018-08-17T05:07:12.410Z,18
2018-08-17T05:08:14.495Z,19
2018-08-17T05:09:16.523Z,20
2018-08-17T05:10:18.559Z,21
2018-08-17T05:11:20.598Z,22
2018-08-17T05:12:22.920Z,22
2018-08-17T05:13:24.949Z,24
2018-08-17T05:14:27.280Z,24
2018-08-17T05:15:29.317Z,24
2018-08-17T05:16:31.642Z,24
2018-08-17T05:17:33.955Z,22
2018-08-17T05:18:36.001Z,22
2018-08-17T05:19:38.357Z,21
2018-08-17T05:20:40.671Z,21
2018-08-17T05:21:43.270Z,20
2018-08-17T05:22:45.316Z,20
2018-08-17T05:23:47.348Z,20
2018-08-17T05:24:49.382Z,21
2018-08-17T05:25:51.422Z,20
2018-08-17T05:26:53.445Z,21
2018-08-17T05:27:55.485Z,21
2018-08-17T05:28:57.525Z,22
2018-08-17T05:30:00.146Z,22
2018-08-17T05:31:02.555Z,22
2018-08-17T05:32:04.600Z,23
2018-08-17T05:33:06.639Z,23
2018-08-17T05:34:08.672Z,23
2018-08-17T05:35:10.718Z,24
2018-08-17T05:36:12.751Z,24
2018-08-17T05:37:14.784Z,24
2018-08-17T05:38:16.826Z,25
2018-08-17T05:39:18.868Z,25
2018-08-17T05:40:21.587Z,25
2018-08-17T05:41:23.625Z,26
2018-08-17T05:42:25.658Z,26
2018-08-17T05:43:27.697Z,26
2018-08-17T05:44:30.131Z,27
2018-08-17T05:45:32.165Z,27
2018-08-17T05:46:34.198Z,28
2018-08-17T05:47:36.247Z,28
2018-08-17T05:48:38.287Z,29
2018-08-17T05:49:40.325Z,30
2018-08-17T05:50:42.369Z,31
2018-08-17T05:51:44.394Z,32
2018-08-17T05:52:46.428Z,33
2018-08-17T05:53:48.468Z,34
2018-08-17T05:54:51.204Z,35
2018-08-17T05:55:53.620Z,34
2018-08-17T05:56:55.666Z,33
2018-08-17T05:57:57.706Z,33
2018-08-17T05:58:59.740Z,34
2018-08-17T06:00:01.786Z,34
2018-08-17T06:01:04.118Z,35
2018-08-17T06:02:06.155Z,36
2018-08-17T06:03:08.496Z,36
2018-08-17T06:04:10.546Z,38
2018-08-17T06:05:12.956Z,38
2018-08-17T06:06:15.279Z,38
2018-08-17T06:07:17.319Z,38
2018-08-17T06:08:19.343Z,38
2018-08-17T06:09:21.385Z,37
2018-08-17T06:10:23.421Z,38
2018-08-17T06:11:26.660Z,40
2018-08-17T06:12:28.591Z,41
2018-08-17T06:13:30.636Z,43
2018-08-17T06:14:32.675Z,44
2018-08-17T06:15:34.717Z,43
2018-08-17T06:16:37.043Z,41
2018-08-17T06:17:39.078Z,42
2018-08-17T06:18:41.402Z,39
2018-08-17T06:19:43.444Z,37
2018-08-17T06:20:45.472Z,36
2018-08-17T06:21:47.511Z,37
2018-08-17T06:22:49.550Z,36
2018-08-17T06:23:51.580Z,36
2018-08-17T06:24:53.630Z,36
2018-08-17T06:25:55.672Z,36
2018-08-17T06:26:58.027Z,39
2018-08-17T06:28:00.059Z,40
2018-08-17T06:29:02.106Z,42
2018-08-17T06:30:04.134Z,42
2018-08-17T06:31:06.738Z,43
2018-08-17T06:32:09.061Z,44
2018-08-17T06:33:11.484Z,45
2018-08-17T06:34:13.523Z,46
2018-08-17T06:35:15.565Z,47
2018-08-17T06:36:17.605Z,48
2018-08-17T06:37:20.479Z,47
2018-08-17T06:38:22.449Z,46
2018-08-17T06:39:24.782Z,45
2018-08-17T06:40:27.140Z,46
2018-08-17T06:41:29.455Z,47
2018-08-17T06:42:31.499Z,48
2018-08-17T06:43:33.533Z,50
2018-08-17T06:44:35.568Z,54
2018-08-17T06:45:37.895Z,56
2018-08-17T06:46:39.936Z,59
2018-08-17T06:47:42.255Z,58
2018-08-17T06:48:44.296Z,56
2018-08-17T06:49:46.334Z,56
2018-08-17T06:50:48.953Z,56
2018-08-17T06:51:50.884Z,54
2018-08-17T06:52:52.926Z,53
2018-08-17T06:53:54.956Z,56
2018-08-17T06:54:56.993Z,60
2018-08-17T06:55:59.033Z,57
2018-08-17T06:57:01.119Z,54
2018-08-17T06:58:03.409Z,52
2018-08-17T06:59:05.450Z,52
2018-08-17T07:00:07.491Z,53
2018-08-17T07:01:09.523Z,54
2018-08-17T07:02:11.581Z,54
2018-08-17T07:03:13.611Z,52
2018-08-17T07:04:15.655Z,51
2018-08-17T07:05:17.700Z,53
2018-08-17T07:06:19.728Z,53
2018-08-17T07:07:21.775Z,53
2018-08-17T07:08:24.377Z,53
2018-08-17T07:09:26.466Z,53
2018-08-17T07:10:28.735Z,52
2018-08-17T07:11:30.772Z,51
2018-08-17T07:12:32.810Z,50
2018-08-17T07:13:34.849Z,52
2018-08-17T07:14:37.169Z,51
2018-08-17T07:15:39.216Z,48
2018-08-17T07:16:41.346Z,43
2018-08-17T07:17:43.571Z,42
2018-08-17T07:18:45.608Z,42
2018-08-17T07:19:47.656Z,42
2018-08-17T07:20:49.699Z,44
2018-08-17T07:21:52.049Z,45
2018-08-17T07:22:54.089Z,46
2018-08-17T07:23:56.124Z,47
2018-08-17T07:24:58.165Z,47
2018-08-17T07:26:00.499Z,48
2018-08-17T07:27:02.814Z,48
2018-08-17T07:28:05.245Z,48
2018-08-17T07:29:07.635Z,47
2018-08-17T07:30:10.341Z,48
2018-08-17T07:31:12.394Z,51
2018-08-17T07:32:14.832Z,53
2018-08-17T07:33:17.178Z,56
2018-08-17T07:34:19.215Z,59
2018-08-17T07:35:21.268Z,61
2018-08-17T07:36:23.607Z,59
2018-08-17T07:37:25.627Z,60
2018-08-17T07:38:27.972Z,62
2018-08-17T07:39:30.002Z,65
2018-08-17T07:40:32.048Z,65
2018-08-17T07:41:34.135Z,58
2018-08-17T07:42:36.129Z,53
2018-08-17T07:43:38.161Z,54
2018-08-17T07:44:40.612Z,57
2018-08-17T07:45:42.650Z,58
2018-08-17T07:46:44.692Z,55
2018-08-17T07:47:46.823Z,57
2018-08-17T07:48:48.785Z,63
2018-08-17T07:49:50.821Z,70
2018-08-17T07:50:52.857Z,69
2018-08-17T07:51:54.898Z,68
2018-08-17T07:52:56.945Z,67
2018-08-17T07:53:59.272Z,66
2018-08-17T07:55:01.316Z,62
2018-08-17T07:56:03.355Z,56
2018-08-17T07:57:05.390Z,56
2018-08-17T07:58:07.820Z,56
2018-08-17T07:59:09.960Z,58
2018-08-17T08:00:12.305Z,62
2018-08-17T08:01:14.727Z,56
2018-08-17T08:02:16.766Z,62
2018-08-17T08:03:18.802Z,60
2018-08-17T08:04:20.851Z,59
2018-08-17T08:05:22.891Z,65
2018-08-17T08:06:25.231Z,66
2018-08-17T08:07:27.267Z,76
2018-08-17T08:08:29.320Z,73
2018-08-17T08:09:31.941Z,111
2018-08-17T08:10:34.338Z,169
2018-08-17T08:11:36.388Z,190
2018-08-17T08:12:38.419Z,210
2018-08-17T08:13:40.617Z,210
2018-08-17T08:14:42.545Z,210
2018-08-17T08:15:44.544Z,216
2018-08-17T08:16:46.962Z,217
2018-08-17T08:17:49.020Z,219
2018-08-17T08:18:51.061Z,222
2018-08-17T08:19:53.101Z,218
2018-08-17T08:20:55.156Z,217
2018-08-17T08:21:57.193Z,215
2018-08-17T08:22:59.236Z,220
2018-08-17T08:24:01.281Z,217
2018-08-17T08:25:03.322Z,217
2018-08-17T08:26:05.441Z,218
2018-08-17T08:27:07.400Z,231
2018-08-17T08:28:09.435Z,240
2018-08-17T08:29:11.864Z,247
2018-08-17T08:30:13.908Z,250
2018-08-17T08:31:15.950Z,254
2018-08-17T08:32:18.053Z,267
2018-08-17T08:33:20.427Z,276
2018-08-17T08:34:22.471Z,247
2018-08-17T08:35:24.799Z,160
2018-08-17T08:36:26.849Z,243
2018-08-17T08:37:28.881Z,167
2018-08-17T08:38:31.216Z,260
2018-08-17T08:39:33.261Z,244
2018-08-17T08:40:35.309Z,128
2018-08-17T08:41:37.345Z,167
2018-08-17T08:42:39.398Z,261
2018-08-17T08:43:41.825Z,281
2018-08-17T08:44:44.151Z,290
2018-08-17T08:45:46.221Z,187
2018-08-17T08:46:48.814Z,115
2018-08-17T08:47:50.858Z,281
2018-08-17T08:48:52.901Z,237
2018-08-17T08:49:54.957Z,218
2018-08-17T08:50:57.380Z,174
2018-08-17T08:51:59.425Z,143
2018-08-17T08:53:01.761Z,156
2018-08-17T08:54:04.358Z,188
2018-08-17T08:55:06.409Z,98
2018-08-17T08:56:08.481Z,103
2018-08-17T08:57:11.165Z,117
2018-08-17T08:58:13.211Z,128
2018-08-17T08:59:15.263Z,167
2018-08-17T09:00:17.693Z,128
2018-08-17T09:01:20.140Z,117
2018-08-17T09:02:22.183Z,106
2018-08-17T09:03:24.223Z,122
2018-08-17T09:04:26.268Z,144
2018-08-17T09:05:28.311Z,317
2018-08-17T09:06:30.444Z,146
2018-08-17T09:07:32.799Z,127
2018-08-17T09:08:34.847Z,129
2018-08-17T09:09:36.899Z,124
2018-08-17T09:10:38.932Z,133
2018-08-17T09:11:40.979Z,112
2018-08-17T09:12:43.026Z,113
2018-08-17T09:13:45.658Z,111
2018-08-17T09:14:47.587Z,112
2018-08-17T09:15:49.919Z,115
2018-08-17T09:16:51.965Z,122
2018-08-17T09:17:54.003Z,161
2018-08-17T09:18:56.065Z,149
2018-08-17T09:19:58.104Z,269
2018-08-17T09:21:00.427Z,132
2018-08-17T09:22:02.771Z,188
2018-08-17T09:23:05.111Z,124
2018-08-17T09:24:07.849Z,124
2018-08-17T09:25:09.895Z,112
2018-08-17T09:26:11.941Z,103
2018-08-17T09:27:14.550Z,99
2018-08-17T09:28:16.601Z,91
2018-08-17T09:29:18.761Z,92
2018-08-17T09:30:20.688Z,92
2018-08-17T09:31:23.125Z,90
2018-08-17T09:32:25.172Z,89
2018-08-17T09:33:27.215Z,88
2018-08-17T09:34:29.269Z,90
2018-08-17T09:35:31.703Z,102
2018-08-17T09:36:34.049Z,180
2018-08-17T09:37:36.097Z,124
2018-08-17T09:38:38.148Z,110
2018-08-17T09:39:40.184Z,119
2018-08-17T09:40:42.232Z,210
2018-08-17T09:41:44.339Z,336
2018-08-17T09:42:46.325Z,150
2018-08-17T09:43:48.360Z,270
2018-08-17T09:44:50.409Z,129
2018-08-17T09:45:52.757Z,112
2018-08-17T09:46:54.809Z,102
2018-08-17T09:47:56.842Z,175
2018-08-17T09:48:58.894Z,115
2018-08-17T09:50:00.938Z,114
2018-08-17T09:51:03.273Z,116
2018-08-17T09:52:05.325Z,114
2018-08-17T09:53:07.653Z,114
2018-08-17T09:54:09.700Z,110
2018-08-17T09:55:11.745Z,113
2018-08-17T09:56:13.802Z,121
2018-08-17T09:57:15.843Z,126
2018-08-17T09:58:18.570Z,154
2018-08-17T09:59:20.610Z,275
2018-08-17T10:00:22.646Z,332
2018-08-17T10:01:24.699Z,127
2018-08-17T10:02:26.747Z,129
2018-08-17T10:03:29.181Z,221
2018-08-17T10:04:31.816Z,375
2018-08-17T10:05:33.866Z,331
2018-08-17T10:06:36.202Z,113
2018-08-17T10:07:38.250Z,99
2018-08-17T10:08:40.298Z,174
2018-08-17T10:09:42.343Z,87
2018-08-17T10:10:44.391Z,79
2018-08-17T10:11:46.439Z,75
2018-08-17T10:12:48.478Z,87
2018-08-17T10:13:50.530Z,97
2018-08-17T10:14:52.577Z,118
2018-08-17T10:15:54.676Z,350
2018-08-17T10:16:56.673Z,356
2018-08-17T10:17:59.101Z,207
2018-08-17T10:19:01.148Z,187
2018-08-17T10:20:03.854Z,408
2018-08-17T10:21:05.992Z,364
2018-08-17T10:22:09.846Z,292
2018-08-17T10:23:12.104Z,243
2018-08-17T10:24:14.142Z,316
2018-08-17T10:25:16.201Z,302
2018-08-17T10:26:18.237Z,386
2018-08-17T10:27:20.671Z,343
2018-08-17T10:28:22.717Z,385
2018-08-17T10:29:25.159Z,406
2018-08-17T10:30:27.203Z,388
2018-08-17T10:31:29.252Z,389
2018-08-17T10:32:31.596Z,235
2018-08-17T10:33:33.636Z,369
2018-08-17T10:34:35.985Z,422
2018-08-17T10:35:38.041Z,260
2018-08-17T10:36:40.368Z,340
2018-08-17T10:37:42.419Z,229
2018-08-17T10:38:44.476Z,190
2018-08-17T10:39:46.525Z,197
2018-08-17T10:40:49.013Z,196
2018-08-17T10:41:51.721Z,290
2018-08-17T10:42:53.766Z,274
2018-08-17T10:43:55.817Z,219
2018-08-17T10:44:57.874Z,399
2018-08-17T10:45:59.915Z,195
2018-08-17T10:47:01.966Z,233
2018-08-17T10:48:04.017Z,178
2018-08-17T10:49:06.379Z,281
2018-08-17T10:50:08.423Z,383
2018-08-17T10:51:10.474Z,367
2018-08-17T10:52:12.530Z,310
2018-08-17T10:53:14.857Z,381
2018-08-17T10:54:17.208Z,362
2018-08-17T10:55:19.254Z,361
2018-08-17T10:56:21.308Z,351
2018-08-17T10:57:23.391Z,280
2018-08-17T10:58:25.684Z,183
2018-08-17T10:59:27.739Z,439
2018-08-17T11:00:29.790Z,226
2018-08-17T11:01:31.842Z,445
2018-08-17T11:02:33.885Z,337
2018-08-17T11:03:35.944Z,227
2018-08-17T11:04:37.998Z,222
2018-08-17T11:05:40.328Z,303
2018-08-17T11:06:42.686Z,327
2018-08-17T11:07:44.736Z,427
2018-08-17T11:08:47.078Z,307
2018-08-17T11:09:49.422Z,297
2018-08-17T11:10:51.920Z,288
2018-08-17T11:11:54.204Z,326
2018-08-17T11:12:56.549Z,428
2018-08-17T11:13:58.888Z,351
2018-08-17T11:15:00.938Z,372
2018-08-17T11:16:02.997Z,383
2018-08-17T11:17:05.142Z,391
2018-08-17T11:18:07.100Z,330
2018-08-17T11:19:09.166Z,254
2018-08-17T11:20:11.526Z,382
2018-08-17T11:21:13.576Z,394
2018-08-17T11:22:15.637Z,217
2018-08-17T11:23:17.964Z,160
2018-08-17T11:24:20.017Z,140
2018-08-17T11:25:22.371Z,128
2018-08-17T11:26:24.424Z,130
2018-08-17T11:27:26.468Z,152
2018-08-17T11:28:28.527Z,170
2018-08-17T11:29:30.578Z,277
2018-08-17T11:30:32.626Z,298
2018-08-17T11:31:34.690Z,190
2018-08-17T11:32:36.739Z,172
2018-08-17T11:33:38.794Z,231
2018-08-17T11:34:40.849Z,152
2018-08-17T11:35:42.918Z,259
2018-08-17T11:36:44.972Z,109
2018-08-17T11:37:47.023Z,105
2018-08-17T11:38:49.076Z,106
2018-08-17T11:39:51.527Z,122
2018-08-17T11:40:53.578Z,146
2018-08-17T11:41:55.634Z,169
2018-08-17T11:42:57.996Z,162
2018-08-17T11:44:00.338Z,171
2018-08-17T11:45:02.386Z,221
2018-08-17T11:46:04.726Z,198
2018-08-17T11:47:06.775Z,223
2018-08-17T11:48:08.831Z,408
2018-08-17T11:49:11.272Z,410
2018-08-17T11:50:13.323Z,216
2018-08-17T11:51:15.373Z,382
2018-08-17T11:52:17.439Z,188
2018-08-17T11:53:19.492Z,147
2018-08-17T11:54:21.549Z,139
2018-08-17T11:55:23.993Z,165
2018-08-17T11:56:26.037Z,214
2018-08-17T11:57:28.086Z,238
2018-08-17T11:58:30.143Z,428
2018-08-17T11:59:32.198Z,361
2018-08-17T12:00:34.546Z,432
2018-08-17T12:01:36.608Z,423
2018-08-17T12:02:38.948Z,425
2018-08-17T12:03:40.993Z,421
2018-08-17T12:04:43.341Z,429
2018-08-17T12:05:45.387Z,410
2018-08-17T12:06:47.878Z,389
2018-08-17T12:07:50.230Z,398
2018-08-17T12:08:52.291Z,414
2018-08-17T12:09:54.338Z,388
2018-08-17T12:10:56.391Z,389
2018-08-17T12:11:58.445Z,402
2018-08-17T12:13:00.489Z,406
2018-08-17T12:14:02.543Z,407
2018-08-17T12:15:04.878Z,162
2018-08-17T12:16:06.937Z,152
2018-08-17T12:17:08.992Z,167
2018-08-17T12:18:11.325Z,263
2018-08-17T12:19:13.375Z,288
2018-08-17T12:20:15.420Z,182
2018-08-17T12:21:17.766Z,155
2018-08-17T12:22:19.822Z,144
2018-08-17T12:23:21.875Z,153
2018-08-17T12:24:25.151Z,407
2018-08-17T12:25:27.405Z,392
2018-08-17T12:26:29.741Z,383
2018-08-17T12:27:31.798Z,394
2018-08-17T12:28:33.851Z,400
2018-08-17T12:29:35.898Z,367
2018-08-17T12:30:38.572Z,345
2018-08-17T12:31:40.626Z,371
2018-08-17T12:32:42.976Z,356
2018-08-17T12:33:45.018Z,166
2018-08-17T12:34:47.081Z,156
2018-08-17T12:35:49.136Z,337
2018-08-17T12:36:51.180Z,352
2018-08-17T12:37:53.243Z,351
2018-08-17T12:38:55.297Z,359
2018-08-17T12:39:58.246Z,388
2018-08-17T12:41:00.293Z,389
2018-08-17T12:42:02.647Z,256
2018-08-17T12:43:04.695Z,127
2018-08-17T12:44:06.748Z,108
2018-08-17T12:45:08.803Z,95
2018-08-17T12:46:10.839Z,101
2018-08-17T12:47:12.900Z,148
2018-08-17T12:48:14.954Z,315
2018-08-17T12:49:16.999Z,359
2018-08-17T12:50:19.053Z,348
2018-08-17T12:51:21.114Z,335
2018-08-17T12:52:23.371Z,311
2018-08-17T12:53:25.214Z,353
2018-08-17T12:54:27.553Z,296
2018-08-17T12:55:29.608Z,296
2018-08-17T12:56:31.662Z,173
2018-08-17T12:57:33.708Z,164
2018-08-17T12:58:35.775Z,155
2018-08-17T12:59:37.831Z,147
2018-08-17T13:00:39.886Z,150
2018-08-17T13:01:41.985Z,146
2018-08-17T13:02:43.988Z,134
2018-08-17T13:03:46.041Z,121
2018-08-17T13:04:55.244Z,110
2018-08-17T13:06:06.956Z,98
2018-08-17T13:07:09.003Z,79
2018-08-17T13:08:11.065Z,72
2018-08-17T13:09:13.468Z,62
2018-08-17T13:10:15.514Z,50
2018-08-17T13:11:17.579Z,43
2018-08-17T13:12:19.909Z,38
2018-08-17T13:13:21.959Z,35
2018-08-17T13:14:24.007Z,29
2018-08-17T13:15:26.071Z,25
2018-08-17T13:16:28.120Z,23
2018-08-17T13:17:30.472Z,23
2018-08-17T13:18:32.813Z,23
2018-08-17T13:19:34.848Z,23
2018-08-17T13:20:36.906Z,22
2018-08-17T13:21:38.958Z,20
2018-08-17T13:22:41.004Z,19
2018-08-17T13:23:43.047Z,18
2018-08-17T13:24:45.385Z,16
2018-08-17T13:25:47.812Z,15
2018-08-17T13:26:49.873Z,15
2018-08-17T13:27:52.204Z,14
2018-08-17T13:28:54.243Z,13
2018-08-17T13:29:57.997Z,11
2018-08-17T13:30:59.800Z,11
2018-08-17T13:32:02.614Z,11
2018-08-17T13:33:04.661Z,11
2018-08-17T13:34:06.706Z,12
2018-08-17T13:35:09.028Z,12
2018-08-17T13:36:11.641Z,13
2018-08-17T13:37:13.918Z,14
2018-08-17T13:38:15.966Z,15
2018-08-17T13:39:18.007Z,17
2018-08-17T13:40:20.068Z,19
2018-08-17T13:41:22.111Z,22
2018-08-17T13:42:24.321Z,24
2018-08-17T13:43:26.209Z,26
2018-08-17T13:44:28.246Z,28
2018-08-17T13:45:30.295Z,29
2018-08-17T13:46:32.339Z,30
2018-08-17T13:47:34.385Z,31
2018-08-17T13:48:36.878Z,31
2018-08-17T13:49:38.857Z,32
2018-08-17T13:50:40.905Z,33
2018-08-17T13:51:42.957Z,35
2018-08-17T13:52:45.318Z,34
2018-08-17T13:53:47.357Z,33
2018-08-17T13:54:49.403Z,32
2018-08-17T13:55:51.841Z,33
2018-08-17T13:56:54.165Z,34
2018-08-17T13:57:56.205Z,34
2018-08-17T13:58:58.634Z,33
2018-08-17T14:00:00.673Z,32
2018-08-17T14:01:02.713Z,32
2018-08-17T14:02:04.827Z,32
2018-08-17T14:03:06.805Z,33
2018-08-17T14:04:08.850Z,37
2018-08-17T14:05:11.190Z,40
2018-08-17T14:06:13.239Z,42
2018-08-17T14:07:15.281Z,42
2018-08-17T14:08:17.831Z,42
2018-08-17T14:09:19.844Z,42
2018-08-17T14:10:21.889Z,42
2018-08-17T14:11:23.932Z,41
2018-08-17T14:12:26.251Z,42
2018-08-17T14:13:28.319Z,43
2018-08-17T14:14:30.357Z,43
2018-08-17T14:15:32.414Z,41
2018-08-17T14:16:34.448Z,39
2018-08-17T14:17:36.866Z,35
2018-08-17T14:18:39.202Z,31
2018-08-17T14:19:41.251Z,28
2018-08-17T14:20:43.298Z,25
2018-08-17T14:21:45.423Z,24
2018-08-17T14:22:47.469Z,25
2018-08-17T14:23:49.793Z,27
2018-08-17T14:24:51.835Z,30
2018-08-17T14:25:53.888Z,33
2018-08-17T14:26:55.925Z,35
2018-08-17T14:27:57.970Z,36
2018-08-17T14:29:00.019Z,35
2018-08-17T14:30:02.068Z,33
2018-08-17T14:31:04.412Z,33
2018-08-17T14:32:06.453Z,38
2018-08-17T14:33:08.492Z,43
2018-08-17T14:34:10.948Z,42
2018-08-17T14:35:13.043Z,39
2018-08-17T14:36:15.308Z,39
2018-08-17T14:37:17.347Z,39
2018-08-17T14:38:19.403Z,42
2018-08-17T14:39:21.447Z,45
2018-08-17T14:40:23.542Z,45
2018-08-17T14:41:25.531Z,42
2018-08-17T14:42:27.567Z,40
2018-08-17T14:43:29.609Z,37
2018-08-17T14:44:32.033Z,36
2018-08-17T14:45:34.082Z,36
2018-08-17T14:46:36.119Z,36